Key West, FL (33040)

6:28 PM EDT on July 25, 2016 (GMT -0400)
Key West Naval Air Station | | Change Station

Elev 7 ft 24.58 °N, 81.69 °W | Updated 35 minutes ago

Partly Cloudy
Partly Cloudy
88 °F
Feels Like 100 °F
N
12
Wind Variable Wind from East

Today
High -- | Low -- °F
--% Chance of Precip.
Yesterday
High -- | Low -- °F
Precip. -- in
Pressure 29.99 in
Visibility 10.0 miles
Clouds Few 2200 ft
Heat Index 100 °F
Dew Point 77 °F
Humidity 70%
Rainfall 0.01 in
Snow Depth Not available.
6:51 AM 8:14 PM
Waning Gibbous, 62% visible
METAR KNQX 252153Z 10010KT 10SM FEW022 31/25 A2999 RMK AO2 SLP155 T2 SET T03110250 $
Pressure 29.99 in
Visibility 10.0 miles
Clouds Few 2200 ft
Heat Index 100 °F
Dew Point 77 °F
Humidity 70%
Rainfall 0.01 in
Snow Depth Not available.
6:51 AM 8:14 PM
Waning Gibbous, 62% visible
METAR KNQX 252153Z 10010KT 10SM FEW022 31/25 A2999 RMK AO2 SLP155 T2 SET T03110250 $
Record highs are possible for parts of the Northeast Monday and Tuesday, as parts of the central U.S. take a little breather from the worst of summer's dog day heat.

Expansive high pressure in the upper atmosphere will focus on parts of the East and West this week, sending heat indices well into the triple digits from the Mid-Atlantic states into the South.

10-Day Weather Forecast

Almanac

Astronomy

Jul. 25, 2016 Rise Set
Actual Time
Civil Twilight
Nautical Twilight
Astronomical Twilight
Moon
Length of Visible Light
Length of Day
Tomorrow will be .
, % of the Moon is Illuminated

Today's Extremes

State Highs State Lows

Community

WunderPhotos

Upload Photos

1,927,429 photos uploaded!

WunderBlog® & News

Nearby

Air Quality

  Air Quality AQ Index Pollutant
Not available.

Snow Depth

Station Depth Elevation

Earthquake Activity

City Distance Mag. Time & Date
Minimum magnitude displayed is 2.5.

Coastal Water Temperatures

Place Temperature

Stations

Nearby Weather Stations

Station Location Temp. Windchill Dew Point Humidity Wind Precip. Elev Updated Type
                   

Watches & Warnings

There are currently no watches in effect.